createdAt,value
2019-01-24T00:00:09.708Z,64.26
2019-01-24T00:05:19.652Z,64.09
2019-01-24T00:10:25.320Z,63.46
2019-01-24T00:15:32.429Z,63.82
2019-01-24T00:20:38.073Z,63.95
2019-01-24T00:25:43.709Z,63.95
2019-01-24T00:30:49.355Z,63.86
2019-01-24T00:35:54.963Z,63.30
2019-01-24T00:41:01.135Z,64.15
2019-01-24T00:46:07.993Z,65.86
2019-01-24T00:51:13.612Z,65.88
2019-01-24T00:56:19.406Z,64.48
2019-01-24T01:01:25.065Z,64.14
2019-01-24T01:06:30.727Z,63.68
2019-01-24T01:11:36.637Z,63.59
2019-01-24T01:16:42.284Z,63.52
2019-01-24T01:21:47.929Z,63.43
2019-01-24T01:26:53.545Z,63.72
2019-01-24T01:31:59.188Z,63.71
2019-01-24T01:37:05.207Z,64.27
2019-01-24T01:42:11.602Z,64.22
2019-01-24T01:47:17.842Z,64.67
2019-01-24T01:52:23.467Z,63.83
2019-01-24T01:57:29.150Z,64.44
2019-01-24T02:02:34.983Z,64.65
2019-01-24T02:07:40.678Z,64.81
2019-01-24T02:12:47.195Z,63.82
2019-01-24T02:17:53.563Z,63.79
2019-01-24T02:22:59.158Z,64.33
2019-01-24T02:28:07.057Z,64.06
2019-01-24T02:33:14.634Z,63.95
2019-01-24T02:38:20.201Z,63.44
2019-01-24T02:43:26.364Z,63.85
2019-01-24T02:48:31.979Z,63.68
2019-01-24T02:53:37.556Z,64.16
2019-01-24T02:58:43.173Z,64.53
2019-01-24T03:03:48.845Z,63.61
2019-01-24T03:08:54.479Z,64.15
2019-01-24T03:14:01.085Z,64.66
2019-01-24T03:19:06.799Z,64.48
2019-01-24T03:24:15.523Z,64.51
2019-01-24T03:29:21.129Z,64.54
2019-01-24T03:34:27.228Z,65.82
2019-01-24T03:39:33.290Z,65.52
2019-01-24T03:44:38.992Z,65.38
2019-01-24T03:49:44.612Z,65.29
2019-01-24T03:54:50.220Z,64.24
2019-01-24T03:59:56.215Z,64.97
2019-01-24T04:05:03.465Z,64.48
2019-01-24T04:10:11.594Z,65.00
2019-01-24T04:15:22.965Z,64.94
2019-01-24T04:20:28.624Z,64.88
2019-01-24T04:25:34.291Z,64.65
2019-01-24T04:30:39.920Z,65.04
2019-01-24T04:35:45.567Z,65.30
2019-01-24T04:40:51.337Z,65.80
2019-01-24T04:45:59.643Z,65.37
2019-01-24T04:51:06.414Z,65.09
2019-01-24T04:56:12.050Z,65.11
2019-01-24T05:01:17.672Z,65.54
2019-01-24T05:06:23.319Z,65.15
2019-01-24T05:11:29.007Z,65.62
2019-01-24T05:16:34.632Z,65.43
2019-01-24T05:21:39.723Z,65.65
2019-01-24T05:26:45.308Z,65.31
2019-01-24T05:31:50.947Z,65.95
2019-01-24T05:36:56.559Z,65.88
2019-01-24T05:42:02.196Z,65.79
2019-01-24T05:47:10.687Z,65.83
2019-01-24T05:52:19.767Z,65.83
2019-01-24T05:57:23.693Z,65.58
2019-01-24T06:02:29.383Z,65.67
2019-01-24T06:12:39.573Z,65.13
2019-01-24T06:17:45.178Z,64.81
2019-01-24T06:22:50.925Z,65.23
2019-01-24T06:27:57.008Z,64.88
2019-01-24T06:33:04.619Z,65.44
2019-01-24T06:38:10.709Z,65.11
2019-01-24T06:43:17.299Z,64.80
2019-01-24T06:48:26.299Z,65.51
2019-01-24T06:53:31.881Z,65.04
2019-01-24T06:58:37.485Z,64.83
2019-01-24T07:03:44.112Z,65.25
2019-01-24T07:08:49.703Z,65.48
2019-01-24T07:13:56.086Z,65.10
2019-01-24T07:19:01.938Z,65.26
2019-01-24T07:24:07.626Z,64.85
2019-01-24T07:29:13.212Z,65.39
2019-01-24T07:34:18.822Z,65.12
2019-01-24T07:39:24.609Z,64.55
2019-01-24T07:44:31.287Z,64.90
2019-01-24T07:49:36.863Z,64.62
2019-01-24T07:54:44.396Z,64.46
2019-01-24T07:59:50.028Z,66.14
2019-01-24T08:04:55.644Z,66.14
2019-01-24T08:10:01.255Z,65.95
2019-01-24T08:15:08.587Z,65.67
2019-01-24T08:20:18.985Z,65.26
2019-01-24T08:25:24.701Z,63.78
2019-01-24T08:30:33.115Z,64.70
2019-01-24T08:35:39.397Z,65.27
2019-01-24T08:40:45.742Z,65.95
2019-01-24T08:45:52.046Z,65.58
2019-01-24T08:50:57.696Z,65.97
2019-01-24T08:56:04.515Z,65.44
2019-01-24T09:01:10.210Z,66.55
2019-01-24T09:06:22.397Z,66.47
2019-01-24T09:11:23.558Z,65.39
2019-01-24T09:16:29.707Z,65.46
2019-01-24T09:21:35.316Z,65.42
2019-01-24T09:26:40.965Z,64.41
2019-01-24T09:31:46.583Z,62.79
2019-01-24T09:36:52.735Z,62.54
2019-01-24T09:41:58.428Z,62.98
2019-01-24T09:47:04.554Z,62.82
2019-01-24T09:52:10.159Z,63.51
2019-01-24T09:57:15.749Z,62.91
2019-01-24T10:02:21.349Z,63.74
2019-01-24T10:07:27.006Z,63.40
2019-01-24T10:12:32.604Z,63.36
2019-01-24T10:17:38.475Z,62.49
2019-01-24T10:22:44.227Z,62.42
2019-01-24T10:27:49.947Z,62.17
2019-01-24T10:32:56.208Z,61.22
2019-01-24T10:38:02.020Z,61.30
2019-01-24T10:43:09.844Z,60.97
2019-01-24T10:48:16.220Z,59.96
2019-01-24T10:53:21.848Z,59.38
2019-01-24T10:58:29.487Z,60.33
2019-01-24T11:03:35.148Z,60.46
2019-01-24T11:08:41.207Z,60.74
2019-01-24T11:13:47.326Z,60.66
2019-01-24T11:18:54.261Z,58.50
2019-01-24T11:24:00.234Z,60.16
2019-01-24T11:29:06.567Z,57.98
2019-01-24T11:34:12.509Z,56.75
2019-01-24T11:39:19.663Z,58.11
2019-01-24T11:44:25.443Z,57.30
2019-01-24T11:49:31.526Z,56.52
2019-01-24T11:54:37.816Z,57.24
2019-01-24T11:59:43.419Z,57.70
2019-01-24T12:04:49.151Z,56.08
2019-01-24T12:09:54.755Z,56.04
2019-01-24T12:15:00.967Z,55.78
2019-01-24T12:20:10.173Z,54.87
2019-01-24T12:25:16.014Z,55.93
2019-01-24T12:30:32.681Z,55.17
2019-01-24T12:35:38.337Z,57.43
2019-01-24T12:40:43.940Z,56.25
2019-01-24T12:45:51.593Z,56.35
2019-01-24T12:50:57.388Z,56.46
2019-01-24T12:56:04.140Z,57.34
2019-01-24T13:01:09.699Z,55.37
2019-01-24T13:06:15.613Z,54.69
2019-01-24T13:11:21.234Z,60.64
2019-01-24T13:16:27.125Z,55.77
2019-01-24T13:21:32.777Z,58.37
2019-01-24T13:26:38.418Z,58.32
2019-01-24T13:31:44.022Z,58.84
2019-01-24T13:36:49.646Z,58.10
2019-01-24T13:41:55.891Z,58.31
2019-01-24T13:47:01.802Z,58.01
2019-01-24T13:52:08.578Z,58.08
2019-01-24T13:57:15.877Z,57.56
2019-01-24T14:02:22.653Z,58.19
2019-01-24T14:07:32.945Z,57.27
2019-01-24T14:12:35.567Z,57.34
2019-01-24T14:17:41.346Z,57.89
2019-01-24T14:22:47.101Z,57.41
2019-01-24T14:27:52.768Z,57.78
2019-01-24T14:32:58.935Z,57.42
2019-01-24T14:38:08.151Z,58.88
2019-01-24T14:43:16.368Z,58.42
2019-01-24T14:48:22.705Z,58.06
2019-01-24T14:53:30.397Z,58.55
2019-01-24T14:58:36.030Z,57.02
2019-01-24T15:03:42.043Z,57.59
2019-01-24T15:08:47.897Z,57.87
2019-01-24T15:13:54.707Z,57.90
2019-01-24T15:19:01.187Z,58.99
2019-01-24T15:24:09.966Z,58.66
2019-01-24T15:29:15.671Z,58.92
2019-01-24T15:34:21.128Z,59.55
2019-01-24T15:39:26.859Z,59.45
2019-01-24T15:44:32.538Z,59.92
2019-01-24T15:49:38.309Z,59.21
2019-01-24T15:54:46.044Z,59.50
2019-01-24T15:59:51.676Z,59.50
2019-01-24T16:04:57.409Z,60.23
2019-01-24T16:10:03.579Z,59.60
2019-01-24T16:15:12.475Z,60.01
2019-01-24T16:20:21.960Z,60.20
2019-01-24T16:25:32.524Z,60.99
2019-01-24T16:30:38.787Z,60.71
2019-01-24T16:35:44.541Z,61.44
2019-01-24T16:40:50.335Z,61.49
2019-01-24T16:45:57.483Z,60.80
2019-01-24T16:51:05.728Z,61.32
2019-01-24T16:56:15.464Z,61.36
2019-01-24T17:01:23.474Z,61.24
2019-01-24T17:06:30.280Z,61.72
2019-01-24T17:11:35.981Z,61.43
2019-01-24T17:16:41.615Z,61.67
2019-01-24T17:21:47.366Z,61.80
2019-01-24T17:26:53.157Z,60.61
2019-01-24T17:31:59.308Z,60.71
2019-01-24T17:37:05.526Z,61.95
2019-01-24T17:42:11.461Z,61.49
2019-01-24T17:47:17.214Z,61.96
2019-01-24T17:52:23.128Z,61.81
2019-01-24T17:57:29.364Z,60.17
2019-01-24T18:02:36.569Z,60.81
2019-01-24T18:07:46.161Z,61.25
2019-01-24T18:12:53.643Z,60.71
2019-01-24T18:17:59.824Z,60.69
2019-01-24T18:23:07.913Z,61.17
2019-01-24T18:28:14.594Z,61.66
2019-01-24T18:33:20.690Z,60.67
2019-01-24T18:38:28.924Z,61.65
2019-01-24T18:43:36.507Z,62.37
2019-01-24T18:48:42.337Z,61.03
2019-01-24T18:53:51.610Z,61.14
2019-01-24T18:58:59.330Z,61.25
2019-01-24T19:04:06.652Z,61.47
2019-01-24T19:09:12.590Z,61.31
2019-01-24T19:14:21.308Z,61.48
2019-01-24T19:19:29.620Z,61.65
2019-01-24T19:24:36.660Z,62.45
2019-01-24T19:29:42.537Z,60.39
2019-01-24T19:34:48.366Z,61.06
2019-01-24T19:39:56.502Z,60.52
2019-01-24T19:45:09.353Z,60.30
2019-01-24T19:50:27.072Z,60.52
2019-01-24T19:55:32.981Z,61.03
2019-01-24T20:00:40.773Z,60.02
2019-01-24T20:05:58.620Z,61.15
2019-01-24T20:11:06.089Z,61.36
2019-01-24T20:16:13.642Z,61.02
2019-01-24T20:21:19.801Z,61.47
2019-01-24T20:26:25.972Z,61.06
2019-01-24T20:31:32.813Z,60.45
2019-01-24T20:36:47.043Z,61.56
2019-01-24T20:41:53.765Z,60.95
2019-01-24T20:47:00.597Z,61.72
2019-01-24T20:52:09.426Z,62.00
2019-01-24T20:57:17.731Z,62.51
2019-01-24T21:02:24.334Z,62.00
2019-01-24T21:07:31.395Z,61.53
2019-01-24T21:12:37.357Z,63.50
2019-01-24T21:17:43.028Z,62.75
2019-01-24T21:22:50.847Z,62.33
2019-01-24T21:27:57.789Z,63.95
2019-01-24T21:33:04.127Z,64.31
2019-01-24T21:38:10.904Z,64.39
2019-01-24T21:43:16.658Z,63.26
2019-01-24T21:48:22.643Z,63.72
2019-01-24T21:53:28.511Z,64.04
2019-01-24T21:58:34.386Z,64.62
2019-01-24T22:03:40.641Z,65.68
2019-01-24T22:08:47.693Z,65.66
2019-01-24T22:13:54.423Z,64.47
2019-01-24T22:19:00.054Z,64.67
2019-01-24T22:24:08.960Z,63.73
2019-01-24T22:29:15.491Z,64.48
2019-01-24T22:34:21.403Z,66.25
2019-01-24T22:39:29.070Z,65.43
2019-01-24T22:44:34.941Z,66.66
2019-01-24T22:49:42.614Z,64.39
2019-01-24T22:54:49.668Z,65.70
2019-01-24T22:59:58.226Z,65.15
2019-01-24T23:05:05.083Z,65.56
2019-01-24T23:10:12.078Z,64.42
2019-01-24T23:15:17.786Z,64.95
2019-01-24T23:20:23.404Z,63.72
2019-01-24T23:25:28.968Z,64.62
2019-01-24T23:30:34.989Z,65.63
2019-01-24T23:35:42.273Z,65.75
2019-01-24T23:40:47.980Z,66.53
2019-01-24T23:45:53.599Z,66.28
2019-01-24T23:51:33.543Z,66.02
2019-01-24T23:56:40.693Z,65.66
